sensor_id;sensor_type;location;lat;lon;timestamp;P1;durP1;ratioP1;P2;durP2;ratioP2
27505;SDS011;14939;43.596;1.320;2023-02-18T00:01:14;63.60;;;38.38;;
27505;SDS011;14939;43.596;1.320;2023-02-18T00:03:42;69.97;;;39.72;;
27505;SDS011;14939;43.596;1.320;2023-02-18T00:06:20;72.82;;;40.30;;
27505;SDS011;14939;43.596;1.320;2023-02-18T00:08:53;69.97;;;40.10;;
27505;SDS011;14939;43.596;1.320;2023-02-18T00:11:23;72.95;;;38.90;;
27505;SDS011;14939;43.596;1.320;2023-02-18T00:13:53;63.97;;;37.92;;
27505;SDS011;14939;43.596;1.320;2023-02-18T00:16:21;69.70;;;40.05;;
27505;SDS011;14939;43.596;1.320;2023-02-18T00:18:48;69.78;;;41.00;;
27505;SDS011;14939;43.596;1.320;2023-02-18T00:21:14;60.17;;;39.05;;
27505;SDS011;14939;43.596;1.320;2023-02-18T00:23:39;65.90;;;38.20;;
27505;SDS011;14939;43.596;1.320;2023-02-18T00:26:07;66.78;;;37.38;;
27505;SDS011;14939;43.596;1.320;2023-02-18T00:28:35;63.72;;;35.92;;
27505;SDS011;14939;43.596;1.320;2023-02-18T00:31:05;60.75;;;37.42;;
27505;SDS011;14939;43.596;1.320;2023-02-18T00:33:35;68.07;;;37.42;;
27505;SDS011;14939;43.596;1.320;2023-02-18T00:36:02;62.05;;;37.58;;
27505;SDS011;14939;43.596;1.320;2023-02-18T00:38:29;57.90;;;35.53;;
27505;SDS011;14939;43.596;1.320;2023-02-18T00:40:55;67.07;;;36.30;;
27505;SDS011;14939;43.596;1.320;2023-02-18T00:43:21;68.53;;;39.00;;
27505;SDS011;14939;43.596;1.320;2023-02-18T00:45:47;77.80;;;43.75;;
27505;SDS011;14939;43.596;1.320;2023-02-18T00:48:12;79.47;;;45.55;;
27505;SDS011;14939;43.596;1.320;2023-02-18T00:50:38;78.97;;;45.97;;
27505;SDS011;14939;43.596;1.320;2023-02-18T00:53:04;69.57;;;36.88;;
27505;SDS011;14939;43.596;1.320;2023-02-18T00:55:29;63.95;;;36.50;;
27505;SDS011;14939;43.596;1.320;2023-02-18T00:57:55;63.85;;;37.55;;
27505;SDS011;14939;43.596;1.320;2023-02-18T01:00:21;64.68;;;37.33;;
27505;SDS011;14939;43.596;1.320;2023-02-18T01:02:49;72.05;;;36.17;;
27505;SDS011;14939;43.596;1.320;2023-02-18T01:05:18;62.65;;;36.67;;
27505;SDS011;14939;43.596;1.320;2023-02-18T01:07:44;65.15;;;35.33;;
27505;SDS011;14939;43.596;1.320;2023-02-18T01:10:10;62.40;;;36.55;;
27505;SDS011;14939;43.596;1.320;2023-02-18T01:12:36;65.50;;;36.70;;
27505;SDS011;14939;43.596;1.320;2023-02-18T01:15:02;59.22;;;35.92;;
27505;SDS011;14939;43.596;1.320;2023-02-18T01:17:29;56.53;;;36.45;;
27505;SDS011;14939;43.596;1.320;2023-02-18T01:19:55;62.10;;;35.67;;
27505;SDS011;14939;43.596;1.320;2023-02-18T01:22:21;60.47;;;36.55;;
27505;SDS011;14939;43.596;1.320;2023-02-18T01:24:46;65.20;;;35.65;;
27505;SDS011;14939;43.596;1.320;2023-02-18T01:27:12;62.45;;;35.47;;
27505;SDS011;14939;43.596;1.320;2023-02-18T01:29:38;69.55;;;36.30;;
27505;SDS011;14939;43.596;1.320;2023-02-18T01:32:03;57.13;;;34.92;;
27505;SDS011;14939;43.596;1.320;2023-02-18T01:34:29;58.83;;;35.70;;
27505;SDS011;14939;43.596;1.320;2023-02-18T01:36:55;54.28;;;34.08;;
27505;SDS011;14939;43.596;1.320;2023-02-18T01:39:20;58.75;;;33.28;;
27505;SDS011;14939;43.596;1.320;2023-02-18T01:41:46;58.75;;;33.95;;
27505;SDS011;14939;43.596;1.320;2023-02-18T01:44:13;53.30;;;33.63;;
27505;SDS011;14939;43.596;1.320;2023-02-18T01:46:43;64.45;;;33.47;;
27505;SDS011;14939;43.596;1.320;2023-02-18T01:49:09;61.75;;;36.20;;
27505;SDS011;14939;43.596;1.320;2023-02-18T01:51:45;65.43;;;35.97;;
27505;SDS011;14939;43.596;1.320;2023-02-18T01:54:19;56.13;;;33.22;;
27505;SDS011;14939;43.596;1.320;2023-02-18T01:57:35;56.75;;;33.08;;
27505;SDS011;14939;43.596;1.320;2023-02-18T01:59:53;61.83;;;35.78;;
27505;SDS011;14939;43.596;1.320;2023-02-18T02:02:21;64.70;;;33.90;;
27505;SDS011;14939;43.596;1.320;2023-02-18T02:04:50;63.97;;;34.78;;
27505;SDS011;14939;43.596;1.320;2023-02-18T02:07:17;56.22;;;33.00;;
27505;SDS011;14939;43.596;1.320;2023-02-18T02:09:44;57.22;;;33.05;;
27505;SDS011;14939;43.596;1.320;2023-02-18T02:15:08;61.33;;;33.10;;
27505;SDS011;14939;43.596;1.320;2023-02-18T02:33:45;54.85;;;30.80;;
27505;SDS011;14939;43.596;1.320;2023-02-18T02:36:32;52.30;;;30.42;;
27505;SDS011;14939;43.596;1.320;2023-02-18T02:39:20;55.42;;;31.90;;
27505;SDS011;14939;43.596;1.320;2023-02-18T02:47:10;57.42;;;31.15;;
27505;SDS011;14939;43.596;1.320;2023-02-18T02:52:26;55.47;;;29.92;;
27505;SDS011;14939;43.596;1.320;2023-02-18T02:54:57;54.35;;;30.05;;
27505;SDS011;14939;43.596;1.320;2023-02-18T02:59:50;52.70;;;29.63;;
27505;SDS011;14939;43.596;1.320;2023-02-18T03:08:03;55.97;;;30.50;;
27505;SDS011;14939;43.596;1.320;2023-02-18T03:10:58;49.10;;;28.88;;
27505;SDS011;14939;43.596;1.320;2023-02-18T03:18:45;42.25;;;25.95;;
27505;SDS011;14939;43.596;1.320;2023-02-18T03:24:12;48.75;;;28.38;;
27505;SDS011;14939;43.596;1.320;2023-02-18T03:26:40;45.50;;;26.90;;
27505;SDS011;14939;43.596;1.320;2023-02-18T03:29:12;41.97;;;27.30;;
27505;SDS011;14939;43.596;1.320;2023-02-18T03:31:42;51.08;;;28.05;;
27505;SDS011;14939;43.596;1.320;2023-02-18T03:34:11;52.63;;;28.20;;
27505;SDS011;14939;43.596;1.320;2023-02-18T03:36:41;49.38;;;27.70;;
27505;SDS011;14939;43.596;1.320;2023-02-18T03:39:08;47.05;;;27.10;;
27505;SDS011;14939;43.596;1.320;2023-02-18T03:41:37;45.80;;;27.40;;
27505;SDS011;14939;43.596;1.320;2023-02-18T03:44:04;47.70;;;26.88;;
27505;SDS011;14939;43.596;1.320;2023-02-18T03:46:31;46.67;;;26.95;;
27505;SDS011;14939;43.596;1.320;2023-02-18T03:48:58;41.67;;;26.65;;
27505;SDS011;14939;43.596;1.320;2023-02-18T03:51:24;49.05;;;28.88;;
27505;SDS011;14939;43.596;1.320;2023-02-18T03:53:49;49.92;;;28.30;;
27505;SDS011;14939;43.596;1.320;2023-02-18T03:56:15;48.80;;;27.15;;
27505;SDS011;14939;43.596;1.320;2023-02-18T03:58:41;47.83;;;26.88;;
27505;SDS011;14939;43.596;1.320;2023-02-18T04:01:07;47.67;;;28.05;;
27505;SDS011;14939;43.596;1.320;2023-02-18T04:03:33;47.58;;;27.10;;
27505;SDS011;14939;43.596;1.320;2023-02-18T04:05:59;51.17;;;27.02;;
27505;SDS011;14939;43.596;1.320;2023-02-18T04:08:24;45.45;;;27.75;;
27505;SDS011;14939;43.596;1.320;2023-02-18T04:10:50;58.72;;;28.38;;
27505;SDS011;14939;43.596;1.320;2023-02-18T04:13:16;52.38;;;27.83;;
27505;SDS011;14939;43.596;1.320;2023-02-18T04:15:45;46.40;;;27.25;;
27505;SDS011;14939;43.596;1.320;2023-02-18T04:18:13;47.92;;;27.65;;
27505;SDS011;14939;43.596;1.320;2023-02-18T04:20:39;52.30;;;28.00;;
27505;SDS011;14939;43.596;1.320;2023-02-18T04:23:05;50.25;;;28.30;;
27505;SDS011;14939;43.596;1.320;2023-02-18T04:25:30;42.30;;;26.30;;
27505;SDS011;14939;43.596;1.320;2023-02-18T04:27:56;45.55;;;28.95;;
27505;SDS011;14939;43.596;1.320;2023-02-18T04:30:22;46.70;;;28.25;;
27505;SDS011;14939;43.596;1.320;2023-02-18T04:32:47;54.60;;;27.52;;
27505;SDS011;14939;43.596;1.320;2023-02-18T04:35:13;42.38;;;26.15;;
27505;SDS011;14939;43.596;1.320;2023-02-18T04:37:39;42.65;;;24.88;;
27505;SDS011;14939;43.596;1.320;2023-02-18T04:40:05;43.35;;;25.27;;
27505;SDS011;14939;43.596;1.320;2023-02-18T04:42:31;40.10;;;24.20;;
27505;SDS011;14939;43.596;1.320;2023-02-18T04:44:57;38.88;;;24.33;;
27505;SDS011;14939;43.596;1.320;2023-02-18T04:47:23;42.45;;;25.42;;
27505;SDS011;14939;43.596;1.320;2023-02-18T04:49:48;39.97;;;24.08;;
27505;SDS011;14939;43.596;1.320;2023-02-18T04:52:14;45.67;;;24.23;;
27505;SDS011;14939;43.596;1.320;2023-02-18T04:54:40;42.55;;;24.17;;
27505;SDS011;14939;43.596;1.320;2023-02-18T04:57:06;42.90;;;24.35;;
27505;SDS011;14939;43.596;1.320;2023-02-18T04:59:31;38.13;;;24.05;;
27505;SDS011;14939;43.596;1.320;2023-02-18T05:01:57;43.28;;;22.70;;
27505;SDS011;14939;43.596;1.320;2023-02-18T05:04:23;39.75;;;21.75;;
27505;SDS011;14939;43.596;1.320;2023-02-18T05:06:49;42.00;;;22.83;;
27505;SDS011;14939;43.596;1.320;2023-02-18T05:09:14;41.38;;;22.65;;
27505;SDS011;14939;43.596;1.320;2023-02-18T05:11:41;39.33;;;23.65;;
27505;SDS011;14939;43.596;1.320;2023-02-18T05:14:07;38.65;;;23.67;;
27505;SDS011;14939;43.596;1.320;2023-02-18T05:16:33;40.53;;;23.30;;
27505;SDS011;14939;43.596;1.320;2023-02-18T05:18:59;39.85;;;23.33;;
27505;SDS011;14939;43.596;1.320;2023-02-18T05:21:25;36.80;;;22.73;;
27505;SDS011;14939;43.596;1.320;2023-02-18T05:23:51;38.08;;;22.52;;
27505;SDS011;14939;43.596;1.320;2023-02-18T05:26:16;37.72;;;22.77;;
27505;SDS011;14939;43.596;1.320;2023-02-18T05:28:42;41.58;;;23.67;;
27505;SDS011;14939;43.596;1.320;2023-02-18T05:31:08;38.00;;;23.63;;
27505;SDS011;14939;43.596;1.320;2023-02-18T05:33:33;38.42;;;22.75;;
27505;SDS011;14939;43.596;1.320;2023-02-18T05:35:59;43.60;;;23.73;;
27505;SDS011;14939;43.596;1.320;2023-02-18T05:38:25;45.47;;;23.88;;
27505;SDS011;14939;43.596;1.320;2023-02-18T05:40:50;42.50;;;23.25;;
27505;SDS011;14939;43.596;1.320;2023-02-18T05:43:16;44.58;;;23.92;;
27505;SDS011;14939;43.596;1.320;2023-02-18T05:45:42;37.28;;;24.13;;
27505;SDS011;14939;43.596;1.320;2023-02-18T05:48:08;37.63;;;22.95;;
27505;SDS011;14939;43.596;1.320;2023-02-18T05:50:33;42.42;;;24.33;;
27505;SDS011;14939;43.596;1.320;2023-02-18T05:52:59;39.85;;;23.23;;
27505;SDS011;14939;43.596;1.320;2023-02-18T05:55:25;42.38;;;23.98;;
27505;SDS011;14939;43.596;1.320;2023-02-18T05:57:51;40.70;;;23.70;;
27505;SDS011;14939;43.596;1.320;2023-02-18T06:00:16;41.35;;;24.05;;
27505;SDS011;14939;43.596;1.320;2023-02-18T06:02:43;36.80;;;23.08;;
27505;SDS011;14939;43.596;1.320;2023-02-18T06:05:09;38.83;;;23.77;;
27505;SDS011;14939;43.596;1.320;2023-02-18T06:07:35;43.50;;;23.90;;
27505;SDS011;14939;43.596;1.320;2023-02-18T06:10:01;38.88;;;23.63;;
27505;SDS011;14939;43.596;1.320;2023-02-18T06:12:27;38.10;;;23.65;;
27505;SDS011;14939;43.596;1.320;2023-02-18T06:14:53;35.70;;;23.52;;
27505;SDS011;14939;43.596;1.320;2023-02-18T06:17:19;40.42;;;24.02;;
27505;SDS011;14939;43.596;1.320;2023-02-18T06:19:46;36.20;;;21.77;;
27505;SDS011;14939;43.596;1.320;2023-02-18T06:22:13;40.72;;;22.92;;
27505;SDS011;14939;43.596;1.320;2023-02-18T06:24:39;38.08;;;22.75;;
27505;SDS011;14939;43.596;1.320;2023-02-18T06:27:05;38.20;;;22.58;;
27505;SDS011;14939;43.596;1.320;2023-02-18T06:29:31;41.53;;;23.33;;
27505;SDS011;14939;43.596;1.320;2023-02-18T06:31:57;38.10;;;22.02;;
27505;SDS011;14939;43.596;1.320;2023-02-18T06:34:24;35.00;;;21.38;;
27505;SDS011;14939;43.596;1.320;2023-02-18T06:36:51;40.67;;;22.67;;
27505;SDS011;14939;43.596;1.320;2023-02-18T06:39:17;39.63;;;22.23;;
27505;SDS011;14939;43.596;1.320;2023-02-18T06:41:43;36.38;;;21.10;;
27505;SDS011;14939;43.596;1.320;2023-02-18T06:44:08;42.83;;;22.02;;
27505;SDS011;14939;43.596;1.320;2023-02-18T06:46:35;41.03;;;22.13;;
27505;SDS011;14939;43.596;1.320;2023-02-18T06:49:01;41.53;;;22.42;;
27505;SDS011;14939;43.596;1.320;2023-02-18T06:51:27;41.90;;;22.50;;
27505;SDS011;14939;43.596;1.320;2023-02-18T06:53:53;43.30;;;22.13;;
27505;SDS011;14939;43.596;1.320;2023-02-18T06:56:19;41.38;;;21.67;;
27505;SDS011;14939;43.596;1.320;2023-02-18T06:58:44;37.33;;;21.63;;
27505;SDS011;14939;43.596;1.320;2023-02-18T07:01:10;35.45;;;21.95;;
27505;SDS011;14939;43.596;1.320;2023-02-18T07:03:36;39.00;;;21.50;;
27505;SDS011;14939;43.596;1.320;2023-02-18T07:06:01;34.05;;;20.88;;
27505;SDS011;14939;43.596;1.320;2023-02-18T07:08:27;38.90;;;20.77;;
27505;SDS011;14939;43.596;1.320;2023-02-18T07:10:54;40.33;;;21.52;;
27505;SDS011;14939;43.596;1.320;2023-02-18T07:13:20;40.22;;;21.55;;
27505;SDS011;14939;43.596;1.320;2023-02-18T07:15:46;36.97;;;22.20;;
27505;SDS011;14939;43.596;1.320;2023-02-18T07:18:12;39.70;;;22.70;;
27505;SDS011;14939;43.596;1.320;2023-02-18T07:20:38;37.15;;;20.58;;
27505;SDS011;14939;43.596;1.320;2023-02-18T07:23:03;36.38;;;20.88;;
27505;SDS011;14939;43.596;1.320;2023-02-18T07:25:29;37.90;;;22.40;;
27505;SDS011;14939;43.596;1.320;2023-02-18T07:27:55;39.78;;;22.88;;
27505;SDS011;14939;43.596;1.320;2023-02-18T07:30:21;37.85;;;23.33;;
27505;SDS011;14939;43.596;1.320;2023-02-18T07:32:46;38.10;;;22.58;;
27505;SDS011;14939;43.596;1.320;2023-02-18T07:35:13;42.40;;;23.58;;
27505;SDS011;14939;43.596;1.320;2023-02-18T07:37:46;38.65;;;22.58;;
27505;SDS011;14939;43.596;1.320;2023-02-18T07:40:13;34.78;;;19.88;;
27505;SDS011;14939;43.596;1.320;2023-02-18T07:42:41;37.53;;;20.13;;
27505;SDS011;14939;43.596;1.320;2023-02-18T07:45:07;34.15;;;19.15;;
27505;SDS011;14939;43.596;1.320;2023-02-18T07:47:33;32.47;;;19.10;;
27505;SDS011;14939;43.596;1.320;2023-02-18T07:49:59;36.95;;;20.20;;
27505;SDS011;14939;43.596;1.320;2023-02-18T07:52:25;32.22;;;19.92;;
27505;SDS011;14939;43.596;1.320;2023-02-18T07:54:51;38.05;;;19.25;;
27505;SDS011;14939;43.596;1.320;2023-02-18T07:57:16;33.30;;;20.48;;
27505;SDS011;14939;43.596;1.320;2023-02-18T07:59:42;34.72;;;20.13;;
27505;SDS011;14939;43.596;1.320;2023-02-18T08:02:11;37.55;;;20.52;;
27505;SDS011;14939;43.596;1.320;2023-02-18T08:04:44;41.50;;;21.83;;
27505;SDS011;14939;43.596;1.320;2023-02-18T08:07:13;40.90;;;21.63;;
27505;SDS011;14939;43.596;1.320;2023-02-18T08:09:41;46.45;;;22.92;;
27505;SDS011;14939;43.596;1.320;2023-02-18T08:12:07;34.85;;;22.13;;
27505;SDS011;14939;43.596;1.320;2023-02-18T08:14:33;36.85;;;22.10;;
27505;SDS011;14939;43.596;1.320;2023-02-18T08:16:59;33.33;;;21.38;;
27505;SDS011;14939;43.596;1.320;2023-02-18T08:19:25;38.25;;;21.58;;
27505;SDS011;14939;43.596;1.320;2023-02-18T08:21:50;34.00;;;21.02;;
27505;SDS011;14939;43.596;1.320;2023-02-18T08:24:16;37.42;;;20.80;;
27505;SDS011;14939;43.596;1.320;2023-02-18T08:26:42;33.88;;;19.83;;
27505;SDS011;14939;43.596;1.320;2023-02-18T08:29:07;31.40;;;18.80;;
27505;SDS011;14939;43.596;1.320;2023-02-18T08:31:33;29.38;;;18.58;;
27505;SDS011;14939;43.596;1.320;2023-02-18T08:33:59;33.28;;;18.48;;
27505;SDS011;14939;43.596;1.320;2023-02-18T08:36:26;29.52;;;18.63;;
27505;SDS011;14939;43.596;1.320;2023-02-18T08:38:52;33.08;;;19.15;;
27505;SDS011;14939;43.596;1.320;2023-02-18T08:41:18;33.53;;;19.83;;
27505;SDS011;14939;43.596;1.320;2023-02-18T08:43:45;31.30;;;20.52;;
27505;SDS011;14939;43.596;1.320;2023-02-18T08:46:11;32.78;;;21.25;;
27505;SDS011;14939;43.596;1.320;2023-02-18T08:48:38;36.85;;;20.92;;
27505;SDS011;14939;43.596;1.320;2023-02-18T08:51:24;35.22;;;20.33;;
27505;SDS011;14939;43.596;1.320;2023-02-18T08:53:50;30.20;;;19.02;;
27505;SDS011;14939;43.596;1.320;2023-02-18T08:56:15;33.10;;;18.98;;
27505;SDS011;14939;43.596;1.320;2023-02-18T08:58:42;35.80;;;19.48;;
27505;SDS011;14939;43.596;1.320;2023-02-18T09:01:09;32.65;;;19.15;;
27505;SDS011;14939;43.596;1.320;2023-02-18T09:03:36;32.50;;;19.98;;
27505;SDS011;14939;43.596;1.320;2023-02-18T09:06:02;30.00;;;18.67;;
27505;SDS011;14939;43.596;1.320;2023-02-18T09:08:28;34.95;;;19.63;;
27505;SDS011;14939;43.596;1.320;2023-02-18T09:10:57;32.80;;;18.83;;
27505;SDS011;14939;43.596;1.320;2023-02-18T09:13:25;29.50;;;18.70;;
27505;SDS011;14939;43.596;1.320;2023-02-18T09:15:55;31.85;;;18.42;;
27505;SDS011;14939;43.596;1.320;2023-02-18T09:18:23;33.33;;;19.50;;
27505;SDS011;14939;43.596;1.320;2023-02-18T09:20:49;30.95;;;19.33;;
27505;SDS011;14939;43.596;1.320;2023-02-18T09:23:15;37.28;;;19.00;;
27505;SDS011;14939;43.596;1.320;2023-02-18T09:25:41;31.42;;;19.08;;
27505;SDS011;14939;43.596;1.320;2023-02-18T09:28:07;29.77;;;19.30;;
27505;SDS011;14939;43.596;1.320;2023-02-18T09:30:33;30.10;;;18.70;;
27505;SDS011;14939;43.596;1.320;2023-02-18T09:32:58;32.10;;;18.50;;
27505;SDS011;14939;43.596;1.320;2023-02-18T09:35:24;30.25;;;18.25;;
27505;SDS011;14939;43.596;1.320;2023-02-18T09:37:50;28.30;;;18.45;;
27505;SDS011;14939;43.596;1.320;2023-02-18T09:40:26;36.67;;;18.50;;
27505;SDS011;14939;43.596;1.320;2023-02-18T09:42:55;32.58;;;18.73;;
27505;SDS011;14939;43.596;1.320;2023-02-18T09:45:22;32.53;;;18.63;;
27505;SDS011;14939;43.596;1.320;2023-02-18T09:47:49;32.22;;;19.50;;
27505;SDS011;14939;43.596;1.320;2023-02-18T09:52:45;32.80;;;18.60;;
27505;SDS011;14939;43.596;1.320;2023-02-18T09:55:26;29.30;;;18.88;;
27505;SDS011;14939;43.596;1.320;2023-02-18T09:58:00;33.45;;;18.38;;
27505;SDS011;14939;43.596;1.320;2023-02-18T10:03:12;31.63;;;18.17;;
27505;SDS011;14939;43.596;1.320;2023-02-18T10:05:41;25.38;;;16.80;;
27505;SDS011;14939;43.596;1.320;2023-02-18T10:08:18;29.25;;;17.45;;
27505;SDS011;14939;43.596;1.320;2023-02-18T10:13:21;22.75;;;15.95;;
27505;SDS011;14939;43.596;1.320;2023-02-18T10:15:49;28.70;;;16.80;;
27505;SDS011;14939;43.596;1.320;2023-02-18T10:21:00;27.77;;;16.05;;
27505;SDS011;14939;43.596;1.320;2023-02-18T10:23:35;29.42;;;16.63;;
27505;SDS011;14939;43.596;1.320;2023-02-18T10:26:04;29.92;;;16.23;;
27505;SDS011;14939;43.596;1.320;2023-02-18T10:28:33;26.77;;;16.27;;
27505;SDS011;14939;43.596;1.320;2023-02-18T10:31:02;29.50;;;15.63;;
27505;SDS011;14939;43.596;1.320;2023-02-18T10:36:20;29.33;;;15.55;;
27505;SDS011;14939;43.596;1.320;2023-02-18T10:45:04;25.42;;;15.07;;
27505;SDS011;14939;43.596;1.320;2023-02-18T10:47:38;24.40;;;14.95;;
27505;SDS011;14939;43.596;1.320;2023-02-18T10:50:34;24.83;;;14.77;;
27505;SDS011;14939;43.596;1.320;2023-02-18T10:53:13;25.27;;;14.95;;
27505;SDS011;14939;43.596;1.320;2023-02-18T10:55:47;34.00;;;14.25;;
27505;SDS011;14939;43.596;1.320;2023-02-18T11:01:18;25.50;;;14.45;;
27505;SDS011;14939;43.596;1.320;2023-02-18T11:03:46;27.48;;;14.65;;
27505;SDS011;14939;43.596;1.320;2023-02-18T11:06:15;23.27;;;13.48;;
27505;SDS011;14939;43.596;1.320;2023-02-18T11:08:51;25.00;;;14.15;;
27505;SDS011;14939;43.596;1.320;2023-02-18T11:11:37;21.67;;;13.40;;
27505;SDS011;14939;43.596;1.320;2023-02-18T11:14:05;35.30;;;13.63;;
27505;SDS011;14939;43.596;1.320;2023-02-18T11:16:42;22.40;;;13.10;;
27505;SDS011;14939;43.596;1.320;2023-02-18T11:22:12;27.33;;;13.45;;
27505;SDS011;14939;43.596;1.320;2023-02-18T11:24:42;26.58;;;12.90;;
27505;SDS011;14939;43.596;1.320;2023-02-18T11:27:30;28.70;;;13.00;;
27505;SDS011;14939;43.596;1.320;2023-02-18T11:30:00;20.95;;;12.35;;
27505;SDS011;14939;43.596;1.320;2023-02-18T11:32:40;25.00;;;12.82;;
27505;SDS011;14939;43.596;1.320;2023-02-18T11:38:25;23.63;;;12.15;;
27505;SDS011;14939;43.596;1.320;2023-02-18T11:41:07;22.60;;;12.02;;
27505;SDS011;14939;43.596;1.320;2023-02-18T11:43:34;21.73;;;11.25;;
27505;SDS011;14939;43.596;1.320;2023-02-18T11:48:39;24.23;;;10.35;;
27505;SDS011;14939;43.596;1.320;2023-02-18T11:51:05;18.40;;;11.10;;
27505;SDS011;14939;43.596;1.320;2023-02-18T11:54:02;18.80;;;10.20;;
27505;SDS011;14939;43.596;1.320;2023-02-18T11:56:31;21.70;;;10.80;;
27505;SDS011;14939;43.596;1.320;2023-02-18T11:58:59;17.27;;;9.48;;
27505;SDS011;14939;43.596;1.320;2023-02-18T12:01:45;18.98;;;9.65;;
27505;SDS011;14939;43.596;1.320;2023-02-18T12:04:16;17.80;;;8.90;;
27505;SDS011;14939;43.596;1.320;2023-02-18T12:09:52;17.73;;;9.27;;
27505;SDS011;14939;43.596;1.320;2023-02-18T12:12:31;15.98;;;9.07;;
27505;SDS011;14939;43.596;1.320;2023-02-18T12:15:13;19.45;;;10.13;;
27505;SDS011;14939;43.596;1.320;2023-02-18T12:20:38;15.63;;;8.27;;
27505;SDS011;14939;43.596;1.320;2023-02-18T12:28:43;13.05;;;6.53;;
27505;SDS011;14939;43.596;1.320;2023-02-18T12:34:08;16.10;;;7.68;;
27505;SDS011;14939;43.596;1.320;2023-02-18T12:42:44;12.25;;;6.22;;
27505;SDS011;14939;43.596;1.320;2023-02-18T12:49:02;13.57;;;7.13;;
27505;SDS011;14939;43.596;1.320;2023-02-18T12:56:45;18.98;;;8.65;;
27505;SDS011;14939;43.596;1.320;2023-02-18T13:18:09;14.98;;;9.75;;
27505;SDS011;14939;43.596;1.320;2023-02-18T13:20:39;18.48;;;9.85;;
27505;SDS011;14939;43.596;1.320;2023-02-18T13:23:16;18.02;;;9.35;;
27505;SDS011;14939;43.596;1.320;2023-02-18T13:25:45;17.08;;;8.85;;
27505;SDS011;14939;43.596;1.320;2023-02-18T13:28:26;14.93;;;8.90;;
27505;SDS011;14939;43.596;1.320;2023-02-18T13:31:05;13.70;;;7.90;;
27505;SDS011;14939;43.596;1.320;2023-02-18T13:33:59;12.70;;;7.68;;
27505;SDS011;14939;43.596;1.320;2023-02-18T13:39:35;11.70;;;6.85;;
27505;SDS011;14939;43.596;1.320;2023-02-18T13:42:11;13.45;;;6.82;;
27505;SDS011;14939;43.596;1.320;2023-02-18T13:50:22;12.80;;;6.85;;
27505;SDS011;14939;43.596;1.320;2023-02-18T13:58:20;15.68;;;9.00;;
27505;SDS011;14939;43.596;1.320;2023-02-18T14:00:54;13.18;;;7.95;;
27505;SDS011;14939;43.596;1.320;2023-02-18T14:06:16;13.10;;;7.55;;
27505;SDS011;14939;43.596;1.320;2023-02-18T14:08:50;11.15;;;6.80;;
27505;SDS011;14939;43.596;1.320;2023-02-18T14:14:33;16.13;;;8.30;;
27505;SDS011;14939;43.596;1.320;2023-02-18T14:23:37;13.10;;;7.80;;
27505;SDS011;14939;43.596;1.320;2023-02-18T14:50:12;13.60;;;6.13;;
27505;SDS011;14939;43.596;1.320;2023-02-18T14:52:51;10.52;;;6.18;;
27505;SDS011;14939;43.596;1.320;2023-02-18T14:55:33;8.60;;;5.93;;
27505;SDS011;14939;43.596;1.320;2023-02-18T14:58:07;12.35;;;6.65;;
27505;SDS011;14939;43.596;1.320;2023-02-18T15:00:50;11.57;;;6.93;;
27505;SDS011;14939;43.596;1.320;2023-02-18T15:03:17;11.63;;;7.38;;
27505;SDS011;14939;43.596;1.320;2023-02-18T15:05:44;10.70;;;7.88;;
27505;SDS011;14939;43.596;1.320;2023-02-18T15:08:18;10.95;;;7.13;;
27505;SDS011;14939;43.596;1.320;2023-02-18T15:15:47;14.85;;;7.35;;
27505;SDS011;14939;43.596;1.320;2023-02-18T15:24:05;13.90;;;7.65;;
27505;SDS011;14939;43.596;1.320;2023-02-18T15:26:42;30.17;;;10.38;;
27505;SDS011;14939;43.596;1.320;2023-02-18T15:29:21;14.52;;;8.15;;
27505;SDS011;14939;43.596;1.320;2023-02-18T15:31:56;13.85;;;8.40;;
27505;SDS011;14939;43.596;1.320;2023-02-18T15:36:54;17.52;;;8.32;;
27505;SDS011;14939;43.596;1.320;2023-02-18T15:39:21;14.63;;;8.18;;
27505;SDS011;14939;43.596;1.320;2023-02-18T15:41:51;11.40;;;7.32;;
27505;SDS011;14939;43.596;1.320;2023-02-18T15:44:23;41.88;;;11.88;;
27505;SDS011;14939;43.596;1.320;2023-02-18T15:46:51;11.65;;;8.13;;
27505;SDS011;14939;43.596;1.320;2023-02-18T15:49:18;291.65;;;48.83;;
27505;SDS011;14939;43.596;1.320;2023-02-18T15:51:46;51.25;;;15.55;;
27505;SDS011;14939;43.596;1.320;2023-02-18T15:54:14;14.15;;;8.70;;
27505;SDS011;14939;43.596;1.320;2023-02-18T15:56:44;25.02;;;9.18;;
27505;SDS011;14939;43.596;1.320;2023-02-18T15:59:16;12.48;;;8.70;;
27505;SDS011;14939;43.596;1.320;2023-02-18T16:01:42;13.10;;;8.30;;
27505;SDS011;14939;43.596;1.320;2023-02-18T16:04:16;14.05;;;7.78;;
27505;SDS011;14939;43.596;1.320;2023-02-18T16:06:47;13.63;;;7.53;;
27505;SDS011;14939;43.596;1.320;2023-02-18T16:09:17;13.35;;;7.82;;
27505;SDS011;14939;43.596;1.320;2023-02-18T16:11:50;13.13;;;7.25;;
27505;SDS011;14939;43.596;1.320;2023-02-18T16:17:14;14.57;;;7.45;;
27505;SDS011;14939;43.596;1.320;2023-02-18T16:19:59;11.65;;;7.03;;
27505;SDS011;14939;43.596;1.320;2023-02-18T16:30:26;11.13;;;6.07;;
27505;SDS011;14939;43.596;1.320;2023-02-18T16:32:54;11.27;;;6.40;;
27505;SDS011;14939;43.596;1.320;2023-02-18T16:35:22;12.23;;;6.05;;
27505;SDS011;14939;43.596;1.320;2023-02-18T16:37:51;16.17;;;5.80;;
27505;SDS011;14939;43.596;1.320;2023-02-18T16:40:25;9.35;;;5.55;;
27505;SDS011;14939;43.596;1.320;2023-02-18T16:42:55;8.75;;;5.47;;
27505;SDS011;14939;43.596;1.320;2023-02-18T16:45:45;10.43;;;5.15;;
27505;SDS011;14939;43.596;1.320;2023-02-18T16:48:33;9.13;;;5.30;;
27505;SDS011;14939;43.596;1.320;2023-02-18T16:51:02;9.85;;;5.00;;
27505;SDS011;14939;43.596;1.320;2023-02-18T16:53:34;7.05;;;4.78;;
27505;SDS011;14939;43.596;1.320;2023-02-18T16:56:00;12.23;;;5.60;;
27505;SDS011;14939;43.596;1.320;2023-02-18T16:58:26;8.70;;;5.10;;
27505;SDS011;14939;43.596;1.320;2023-02-18T17:00:53;6.75;;;4.63;;
27505;SDS011;14939;43.596;1.320;2023-02-18T17:03:19;9.35;;;4.95;;
27505;SDS011;14939;43.596;1.320;2023-02-18T17:05:45;6.78;;;5.07;;
27505;SDS011;14939;43.596;1.320;2023-02-18T17:10:54;14.60;;;11.02;;
27505;SDS011;14939;43.596;1.320;2023-02-18T17:13:31;10.88;;;7.13;;
27505;SDS011;14939;43.596;1.320;2023-02-18T17:15:56;11.88;;;6.60;;
27505;SDS011;14939;43.596;1.320;2023-02-18T17:18:23;11.52;;;6.88;;
27505;SDS011;14939;43.596;1.320;2023-02-18T17:20:50;10.20;;;7.07;;
27505;SDS011;14939;43.596;1.320;2023-02-18T17:23:18;11.40;;;7.32;;
27505;SDS011;14939;43.596;1.320;2023-02-18T17:25:48;11.38;;;7.78;;
27505;SDS011;14939;43.596;1.320;2023-02-18T17:28:15;14.38;;;7.93;;
27505;SDS011;14939;43.596;1.320;2023-02-18T17:30:43;13.02;;;7.40;;
27505;SDS011;14939;43.596;1.320;2023-02-18T17:33:15;12.65;;;8.10;;
27505;SDS011;14939;43.596;1.320;2023-02-18T17:35:43;12.20;;;7.68;;
27505;SDS011;14939;43.596;1.320;2023-02-18T17:38:10;16.23;;;8.10;;
27505;SDS011;14939;43.596;1.320;2023-02-18T17:40:37;16.83;;;9.07;;
27505;SDS011;14939;43.596;1.320;2023-02-18T17:43:03;14.63;;;9.43;;
27505;SDS011;14939;43.596;1.320;2023-02-18T17:45:34;16.52;;;10.25;;
27505;SDS011;14939;43.596;1.320;2023-02-18T17:48:03;20.35;;;9.80;;
27505;SDS011;14939;43.596;1.320;2023-02-18T17:50:30;13.82;;;9.68;;
27505;SDS011;14939;43.596;1.320;2023-02-18T17:52:56;21.85;;;11.60;;
27505;SDS011;14939;43.596;1.320;2023-02-18T17:55:22;21.70;;;13.82;;
27505;SDS011;14939;43.596;1.320;2023-02-18T17:57:51;17.70;;;12.10;;